sensor_id;sensor_type;location;lat;lon;timestamp;temperature;humidity
73777;DHT22;62088;50.240;2.696;2022-10-31T00:01:31;13.30;79.70
73777;DHT22;62088;50.240;2.696;2022-10-31T00:03:59;13.30;79.60
73777;DHT22;62088;50.240;2.696;2022-10-31T00:06:26;13.30;79.60
73777;DHT22;62088;50.240;2.696;2022-10-31T00:09:01;13.30;79.50
73777;DHT22;62088;50.240;2.696;2022-10-31T00:11:29;13.20;79.40
73777;DHT22;62088;50.240;2.696;2022-10-31T00:13:57;13.20;79.30
73777;DHT22;62088;50.240;2.696;2022-10-31T00:16:26;13.20;79.20
73777;DHT22;62088;50.240;2.696;2022-10-31T00:18:57;13.20;79.10
73777;DHT22;62088;50.240;2.696;2022-10-31T00:21:24;13.10;79.00
73777;DHT22;62088;50.240;2.696;2022-10-31T00:23:52;13.10;79.00
73777;DHT22;62088;50.240;2.696;2022-10-31T00:26:19;13.10;79.00
73777;DHT22;62088;50.240;2.696;2022-10-31T00:28:46;13.10;78.90
73777;DHT22;62088;50.240;2.696;2022-10-31T00:31:14;13.00;78.80
73777;DHT22;62088;50.240;2.696;2022-10-31T00:33:41;13.00;78.80
73777;DHT22;62088;50.240;2.696;2022-10-31T00:36:15;12.90;78.80
73777;DHT22;62088;50.240;2.696;2022-10-31T00:38:43;12.90;78.90
73777;DHT22;62088;50.240;2.696;2022-10-31T00:41:11;12.90;78.90
73777;DHT22;62088;50.240;2.696;2022-10-31T00:43:40;12.90;79.00
73777;DHT22;62088;50.240;2.696;2022-10-31T00:46:08;12.90;79.00
73777;DHT22;62088;50.240;2.696;2022-10-31T00:48:35;12.90;79.10
73777;DHT22;62088;50.240;2.696;2022-10-31T00:51:02;12.90;79.20
73777;DHT22;62088;50.240;2.696;2022-10-31T00:53:29;12.80;79.20
73777;DHT22;62088;50.240;2.696;2022-10-31T00:55:56;12.80;79.30
73777;DHT22;62088;50.240;2.696;2022-10-31T00:58:23;12.80;79.40
73777;DHT22;62088;50.240;2.696;2022-10-31T01:00:51;12.70;79.50
73777;DHT22;62088;50.240;2.696;2022-10-31T01:03:24;12.70;79.60
73777;DHT22;62088;50.240;2.696;2022-10-31T01:06:05;12.70;79.70
73777;DHT22;62088;50.240;2.696;2022-10-31T01:08:33;12.70;79.70
73777;DHT22;62088;50.240;2.696;2022-10-31T01:13:32;12.70;79.70
73777;DHT22;62088;50.240;2.696;2022-10-31T01:16:02;12.60;79.60
73777;DHT22;62088;50.240;2.696;2022-10-31T01:18:31;12.60;79.60
73777;DHT22;62088;50.240;2.696;2022-10-31T01:21:07;12.60;79.50
73777;DHT22;62088;50.240;2.696;2022-10-31T01:23:35;12.60;79.40
73777;DHT22;62088;50.240;2.696;2022-10-31T01:26:15;12.60;79.30
73777;DHT22;62088;50.240;2.696;2022-10-31T01:28:49;12.50;79.30
73777;DHT22;62088;50.240;2.696;2022-10-31T01:31:18;12.50;79.30
73777;DHT22;62088;50.240;2.696;2022-10-31T01:33:46;12.50;79.20
73777;DHT22;62088;50.240;2.696;2022-10-31T01:36:20;12.50;79.20
73777;DHT22;62088;50.240;2.696;2022-10-31T01:38:51;12.40;79.10
73777;DHT22;62088;50.240;2.696;2022-10-31T01:41:21;12.40;79.00
73777;DHT22;62088;50.240;2.696;2022-10-31T01:46:38;12.40;79.00
73777;DHT22;62088;50.240;2.696;2022-10-31T01:49:13;12.40;79.00
73777;DHT22;62088;50.240;2.696;2022-10-31T01:52:02;12.30;79.20
73777;DHT22;62088;50.240;2.696;2022-10-31T01:54:34;12.30;79.30
73777;DHT22;62088;50.240;2.696;2022-10-31T01:57:04;12.30;79.40
73777;DHT22;62088;50.240;2.696;2022-10-31T01:59:34;12.20;79.40
73777;DHT22;62088;50.240;2.696;2022-10-31T02:02:02;12.20;79.40
73777;DHT22;62088;50.240;2.696;2022-10-31T02:04:29;12.20;79.50
73777;DHT22;62088;50.240;2.696;2022-10-31T02:07:19;12.20;79.40
73777;DHT22;62088;50.240;2.696;2022-10-31T02:09:48;12.20;79.50
73777;DHT22;62088;50.240;2.696;2022-10-31T02:12:16;12.10;79.50
73777;DHT22;62088;50.240;2.696;2022-10-31T02:14:44;12.10;79.50
73777;DHT22;62088;50.240;2.696;2022-10-31T02:17:11;12.10;79.50
73777;DHT22;62088;50.240;2.696;2022-10-31T02:31:14;12.00;80.10
73777;DHT22;62088;50.240;2.696;2022-10-31T02:33:52;12.00;80.10
73777;DHT22;62088;50.240;2.696;2022-10-31T02:39:12;12.00;80.20
73777;DHT22;62088;50.240;2.696;2022-10-31T02:41:57;12.00;80.30
73777;DHT22;62088;50.240;2.696;2022-10-31T02:49:33;11.90;80.30
73777;DHT22;62088;50.240;2.696;2022-10-31T02:52:29;11.90;80.30
73777;DHT22;62088;50.240;2.696;2022-10-31T02:58:21;11.90;80.30
73777;DHT22;62088;50.240;2.696;2022-10-31T03:09:34;11.90;80.30
73777;DHT22;62088;50.240;2.696;2022-10-31T03:12:19;11.90;80.40
73777;DHT22;62088;50.240;2.696;2022-10-31T03:15:19;11.90;80.40
73777;DHT22;62088;50.240;2.696;2022-10-31T03:20:19;11.90;80.40
73777;DHT22;62088;50.240;2.696;2022-10-31T03:22:48;11.90;80.30
73777;DHT22;62088;50.240;2.696;2022-10-31T03:25:16;11.80;80.30
73777;DHT22;62088;50.240;2.696;2022-10-31T03:27:46;11.80;80.40
73777;DHT22;62088;50.240;2.696;2022-10-31T03:30:14;11.80;80.30
73777;DHT22;62088;50.240;2.696;2022-10-31T03:32:55;11.90;80.30
73777;DHT22;62088;50.240;2.696;2022-10-31T03:35:27;11.80;80.20
73777;DHT22;62088;50.240;2.696;2022-10-31T03:37:55;11.80;80.10
73777;DHT22;62088;50.240;2.696;2022-10-31T03:40:25;11.80;80.10
73777;DHT22;62088;50.240;2.696;2022-10-31T03:43:00;11.70;80.00
73777;DHT22;62088;50.240;2.696;2022-10-31T03:45:32;11.70;80.10
73777;DHT22;62088;50.240;2.696;2022-10-31T03:48:03;11.70;80.10
73777;DHT22;62088;50.240;2.696;2022-10-31T03:51:00;11.70;80.20
73777;DHT22;62088;50.240;2.696;2022-10-31T03:53:36;11.60;80.30
73777;DHT22;62088;50.240;2.696;2022-10-31T03:56:25;11.70;80.30
73777;DHT22;62088;50.240;2.696;2022-10-31T03:59:05;11.70;80.40
73777;DHT22;62088;50.240;2.696;2022-10-31T04:01:38;11.70;80.50
73777;DHT22;62088;50.240;2.696;2022-10-31T04:04:07;11.60;80.50
73777;DHT22;62088;50.240;2.696;2022-10-31T04:06:36;11.60;80.60
73777;DHT22;62088;50.240;2.696;2022-10-31T04:09:06;11.60;80.60
73777;DHT22;62088;50.240;2.696;2022-10-31T04:11:40;11.60;80.70
73777;DHT22;62088;50.240;2.696;2022-10-31T04:14:30;11.60;80.70
73777;DHT22;62088;50.240;2.696;2022-10-31T04:16:59;11.60;80.80
73777;DHT22;62088;50.240;2.696;2022-10-31T04:19:33;11.60;80.80
73777;DHT22;62088;50.240;2.696;2022-10-31T04:22:01;11.60;80.80
73777;DHT22;62088;50.240;2.696;2022-10-31T04:24:28;11.60;80.90
73777;DHT22;62088;50.240;2.696;2022-10-31T04:26:55;11.60;81.00
73777;DHT22;62088;50.240;2.696;2022-10-31T04:29:23;11.60;81.00
73777;DHT22;62088;50.240;2.696;2022-10-31T04:31:50;11.60;81.00
73777;DHT22;62088;50.240;2.696;2022-10-31T04:34:17;11.60;81.00
73777;DHT22;62088;50.240;2.696;2022-10-31T04:36:44;11.60;81.00
73777;DHT22;62088;50.240;2.696;2022-10-31T04:39:14;11.60;81.00
73777;DHT22;62088;50.240;2.696;2022-10-31T04:41:47;11.60;80.90
73777;DHT22;62088;50.240;2.696;2022-10-31T04:44:15;11.60;80.80
73777;DHT22;62088;50.240;2.696;2022-10-31T04:46:45;11.60;80.80
73777;DHT22;62088;50.240;2.696;2022-10-31T04:49:12;11.60;80.70
73777;DHT22;62088;50.240;2.696;2022-10-31T04:51:39;11.60;80.80
73777;DHT22;62088;50.240;2.696;2022-10-31T04:54:08;11.60;80.80
73777;DHT22;62088;50.240;2.696;2022-10-31T04:56:38;11.60;80.80
73777;DHT22;62088;50.240;2.696;2022-10-31T04:59:11;11.60;80.80
73777;DHT22;62088;50.240;2.696;2022-10-31T05:01:49;11.60;80.70
73777;DHT22;62088;50.240;2.696;2022-10-31T05:04:20;11.60;80.80
73777;DHT22;62088;50.240;2.696;2022-10-31T05:06:47;11.60;80.70
73777;DHT22;62088;50.240;2.696;2022-10-31T05:09:14;11.60;80.70
73777;DHT22;62088;50.240;2.696;2022-10-31T05:11:42;11.60;80.60
73777;DHT22;62088;50.240;2.696;2022-10-31T05:14:32;11.60;80.70
73777;DHT22;62088;50.240;2.696;2022-10-31T05:17:34;11.60;80.70
73777;DHT22;62088;50.240;2.696;2022-10-31T05:20:23;11.60;80.70
73777;DHT22;62088;50.240;2.696;2022-10-31T05:23:13;11.60;80.70
73777;DHT22;62088;50.240;2.696;2022-10-31T05:25:41;11.60;80.70
73777;DHT22;62088;50.240;2.696;2022-10-31T05:28:08;11.60;80.70
73777;DHT22;62088;50.240;2.696;2022-10-31T05:30:35;11.60;80.70
73777;DHT22;62088;50.240;2.696;2022-10-31T05:33:04;11.60;80.70
73777;DHT22;62088;50.240;2.696;2022-10-31T05:35:40;11.60;80.70
73777;DHT22;62088;50.240;2.696;2022-10-31T05:38:30;11.60;80.60
73777;DHT22;62088;50.240;2.696;2022-10-31T05:41:02;11.60;80.60
73777;DHT22;62088;50.240;2.696;2022-10-31T05:43:31;11.60;80.60
73777;DHT22;62088;50.240;2.696;2022-10-31T05:46:01;11.60;80.70
73777;DHT22;62088;50.240;2.696;2022-10-31T05:49:00;11.60;80.70
73777;DHT22;62088;50.240;2.696;2022-10-31T05:51:47;11.60;80.70
73777;DHT22;62088;50.240;2.696;2022-10-31T05:54:14;11.60;80.70
73777;DHT22;62088;50.240;2.696;2022-10-31T05:56:44;11.60;80.70
73777;DHT22;62088;50.240;2.696;2022-10-31T05:59:11;11.60;80.60
73777;DHT22;62088;50.240;2.696;2022-10-31T06:01:39;11.50;80.60
73777;DHT22;62088;50.240;2.696;2022-10-31T06:04:18;11.60;80.60
73777;DHT22;62088;50.240;2.696;2022-10-31T06:06:45;11.50;80.60
73777;DHT22;62088;50.240;2.696;2022-10-31T06:09:12;11.50;80.60
73777;DHT22;62088;50.240;2.696;2022-10-31T06:11:40;11.50;80.60
73777;DHT22;62088;50.240;2.696;2022-10-31T06:14:07;11.50;80.60
73777;DHT22;62088;50.240;2.696;2022-10-31T06:16:48;11.50;80.50
73777;DHT22;62088;50.240;2.696;2022-10-31T06:19:50;11.50;80.40
73777;DHT22;62088;50.240;2.696;2022-10-31T06:22:20;11.40;80.40
73777;DHT22;62088;50.240;2.696;2022-10-31T06:24:47;11.40;80.50
73777;DHT22;62088;50.240;2.696;2022-10-31T06:27:33;11.40;80.60
73777;DHT22;62088;50.240;2.696;2022-10-31T06:30:07;11.40;80.60
73777;DHT22;62088;50.240;2.696;2022-10-31T06:32:36;11.40;80.60
73777;DHT22;62088;50.240;2.696;2022-10-31T06:35:03;11.40;80.60
73777;DHT22;62088;50.240;2.696;2022-10-31T06:37:32;11.40;80.60
73777;DHT22;62088;50.240;2.696;2022-10-31T06:40:08;11.40;80.60
73777;DHT22;62088;50.240;2.696;2022-10-31T06:43:01;11.30;80.60
73777;DHT22;62088;50.240;2.696;2022-10-31T06:45:30;11.30;80.60
73777;DHT22;62088;50.240;2.696;2022-10-31T06:48:13;11.40;80.60
73777;DHT22;62088;50.240;2.696;2022-10-31T06:51:19;11.40;80.70
73777;DHT22;62088;50.240;2.696;2022-10-31T06:53:49;11.30;80.70
73777;DHT22;62088;50.240;2.696;2022-10-31T06:56:17;11.30;80.70
73777;DHT22;62088;50.240;2.696;2022-10-31T06:58:48;11.30;80.80
73777;DHT22;62088;50.240;2.696;2022-10-31T07:01:23;11.30;80.80
73777;DHT22;62088;50.240;2.696;2022-10-31T07:03:51;11.40;80.80
73777;DHT22;62088;50.240;2.696;2022-10-31T07:06:18;11.30;80.90
73777;DHT22;62088;50.240;2.696;2022-10-31T07:08:45;11.40;81.00
73777;DHT22;62088;50.240;2.696;2022-10-31T07:11:12;11.40;81.00
73777;DHT22;62088;50.240;2.696;2022-10-31T07:13:40;11.40;81.10
73777;DHT22;62088;50.240;2.696;2022-10-31T07:16:07;11.40;81.20
73777;DHT22;62088;50.240;2.696;2022-10-31T07:18:35;11.30;81.30
73777;DHT22;62088;50.240;2.696;2022-10-31T07:21:03;11.40;81.40
73777;DHT22;62088;50.240;2.696;2022-10-31T07:23:31;11.40;81.50
73777;DHT22;62088;50.240;2.696;2022-10-31T07:26:35;11.40;81.50
73777;DHT22;62088;50.240;2.696;2022-10-31T07:29:02;11.40;81.50
73777;DHT22;62088;50.240;2.696;2022-10-31T07:31:29;11.40;81.60
73777;DHT22;62088;50.240;2.696;2022-10-31T07:34:02;11.40;81.70
73777;DHT22;62088;50.240;2.696;2022-10-31T07:36:48;11.40;81.70
73777;DHT22;62088;50.240;2.696;2022-10-31T07:39:17;11.40;81.80
73777;DHT22;62088;50.240;2.696;2022-10-31T07:41:45;11.40;81.90
73777;DHT22;62088;50.240;2.696;2022-10-31T07:44:16;11.50;81.90
73777;DHT22;62088;50.240;2.696;2022-10-31T07:47:18;11.50;82.00
73777;DHT22;62088;50.240;2.696;2022-10-31T07:50:04;11.50;82.10
73777;DHT22;62088;50.240;2.696;2022-10-31T07:53:11;11.60;82.10
73777;DHT22;62088;50.240;2.696;2022-10-31T07:55:39;11.60;82.20
73777;DHT22;62088;50.240;2.696;2022-10-31T07:58:09;11.60;82.30
73777;DHT22;62088;50.240;2.696;2022-10-31T08:00:41;11.60;82.30
73777;DHT22;62088;50.240;2.696;2022-10-31T08:03:12;11.70;82.30
73777;DHT22;62088;50.240;2.696;2022-10-31T08:06:02;11.70;82.30
73777;DHT22;62088;50.240;2.696;2022-10-31T08:08:53;11.70;82.40
73777;DHT22;62088;50.240;2.696;2022-10-31T08:11:19;11.70;82.40
73777;DHT22;62088;50.240;2.696;2022-10-31T08:13:47;11.70;82.40
73777;DHT22;62088;50.240;2.696;2022-10-31T08:16:14;11.80;82.50
73777;DHT22;62088;50.240;2.696;2022-10-31T08:18:58;11.80;82.50
73777;DHT22;62088;50.240;2.696;2022-10-31T08:21:27;11.80;82.60
73777;DHT22;62088;50.240;2.696;2022-10-31T08:23:54;11.80;82.70
73777;DHT22;62088;50.240;2.696;2022-10-31T08:26:23;11.90;82.80
73777;DHT22;62088;50.240;2.696;2022-10-31T08:28:52;11.90;82.80
73777;DHT22;62088;50.240;2.696;2022-10-31T08:31:22;11.90;82.90
73777;DHT22;62088;50.240;2.696;2022-10-31T08:34:14;11.90;82.90
73777;DHT22;62088;50.240;2.696;2022-10-31T08:37:04;11.90;82.90
73777;DHT22;62088;50.240;2.696;2022-10-31T08:39:52;11.90;82.90
73777;DHT22;62088;50.240;2.696;2022-10-31T08:42:20;12.00;83.10
73777;DHT22;62088;50.240;2.696;2022-10-31T08:44:47;12.00;83.20
73777;DHT22;62088;50.240;2.696;2022-10-31T08:47:14;12.10;83.30
73777;DHT22;62088;50.240;2.696;2022-10-31T08:49:41;12.10;83.40
73777;DHT22;62088;50.240;2.696;2022-10-31T08:52:08;12.20;83.50
73777;DHT22;62088;50.240;2.696;2022-10-31T08:54:40;12.20;83.70
73777;DHT22;62088;50.240;2.696;2022-10-31T08:57:37;12.30;83.80
73777;DHT22;62088;50.240;2.696;2022-10-31T09:00:04;12.30;83.80
73777;DHT22;62088;50.240;2.696;2022-10-31T09:02:59;12.30;83.90
73777;DHT22;62088;50.240;2.696;2022-10-31T09:05:29;12.40;84.00
73777;DHT22;62088;50.240;2.696;2022-10-31T09:08:01;12.40;84.10
73777;DHT22;62088;50.240;2.696;2022-10-31T09:10:30;12.40;84.10
73777;DHT22;62088;50.240;2.696;2022-10-31T09:13:03;12.50;84.20
73777;DHT22;62088;50.240;2.696;2022-10-31T09:15:52;12.50;84.20
73777;DHT22;62088;50.240;2.696;2022-10-31T09:18:23;12.60;84.30
73777;DHT22;62088;50.240;2.696;2022-10-31T09:21:00;12.60;84.40
73777;DHT22;62088;50.240;2.696;2022-10-31T09:23:29;12.60;84.40
73777;DHT22;62088;50.240;2.696;2022-10-31T09:26:00;12.70;84.40
73777;DHT22;62088;50.240;2.696;2022-10-31T09:28:59;12.80;84.50
73777;DHT22;62088;50.240;2.696;2022-10-31T09:31:29;12.80;84.60
73777;DHT22;62088;50.240;2.696;2022-10-31T09:34:06;12.90;84.60
73777;DHT22;62088;50.240;2.696;2022-10-31T09:36:36;12.90;84.60
73777;DHT22;62088;50.240;2.696;2022-10-31T09:39:06;13.00;84.70
73777;DHT22;62088;50.240;2.696;2022-10-31T09:52:11;13.40;84.90
73777;DHT22;62088;50.240;2.696;2022-10-31T09:55:03;13.50;85.00
73777;DHT22;62088;50.240;2.696;2022-10-31T09:57:35;13.60;84.90
73777;DHT22;62088;50.240;2.696;2022-10-31T10:00:05;13.70;84.90
73777;DHT22;62088;50.240;2.696;2022-10-31T10:02:57;13.90;85.00
73777;DHT22;62088;50.240;2.696;2022-10-31T10:05:36;14.00;85.00
73777;DHT22;62088;50.240;2.696;2022-10-31T10:11:04;14.20;85.20
73777;DHT22;62088;50.240;2.696;2022-10-31T10:20:25;14.60;85.10
73777;DHT22;62088;50.240;2.696;2022-10-31T10:25:52;14.90;84.80
73777;DHT22;62088;50.240;2.696;2022-10-31T10:28:29;15.10;84.70
73777;DHT22;62088;50.240;2.696;2022-10-31T10:31:14;15.20;84.50
73777;DHT22;62088;50.240;2.696;2022-10-31T10:33:57;15.30;84.20
73777;DHT22;62088;50.240;2.696;2022-10-31T10:36:42;15.40;83.90
73777;DHT22;62088;50.240;2.696;2022-10-31T10:39:20;15.60;83.70
73777;DHT22;62088;50.240;2.696;2022-10-31T10:41:50;15.70;83.50
73777;DHT22;62088;50.240;2.696;2022-10-31T10:44:44;15.70;83.30
73777;DHT22;62088;50.240;2.696;2022-10-31T10:47:39;15.90;83.00
73777;DHT22;62088;50.240;2.696;2022-10-31T10:53:20;16.10;82.50
73777;DHT22;62088;50.240;2.696;2022-10-31T10:58:44;16.30;81.70
73777;DHT22;62088;50.240;2.696;2022-10-31T11:01:13;16.30;81.00
73777;DHT22;62088;50.240;2.696;2022-10-31T11:03:45;16.40;80.70
73777;DHT22;62088;50.240;2.696;2022-10-31T11:06:22;16.40;80.50
73777;DHT22;62088;50.240;2.696;2022-10-31T11:08:53;16.40;80.20
73777;DHT22;62088;50.240;2.696;2022-10-31T11:11:28;16.50;80.10
73777;DHT22;62088;50.240;2.696;2022-10-31T11:14:03;16.40;79.90
73777;DHT22;62088;50.240;2.696;2022-10-31T11:16:36;16.40;79.90
73777;DHT22;62088;50.240;2.696;2022-10-31T11:21:45;16.50;79.80
73777;DHT22;62088;50.240;2.696;2022-10-31T11:24:22;16.50;79.80
73777;DHT22;62088;50.240;2.696;2022-10-31T11:26:50;16.50;79.80
73777;DHT22;62088;50.240;2.696;2022-10-31T11:29:25;16.50;79.80
73777;DHT22;62088;50.240;2.696;2022-10-31T11:31:55;16.60;79.70
73777;DHT22;62088;50.240;2.696;2022-10-31T11:34:37;16.60;79.70
73777;DHT22;62088;50.240;2.696;2022-10-31T11:37:20;16.60;79.50
73777;DHT22;62088;50.240;2.696;2022-10-31T11:39:53;16.60;79.40
73777;DHT22;62088;50.240;2.696;2022-10-31T11:42:24;16.60;79.20
73777;DHT22;62088;50.240;2.696;2022-10-31T11:44:53;16.60;79.20
73777;DHT22;62088;50.240;2.696;2022-10-31T11:47:29;16.60;79.20
73777;DHT22;62088;50.240;2.696;2022-10-31T11:49:57;16.60;79.20
73777;DHT22;62088;50.240;2.696;2022-10-31T11:52:30;16.60;79.20
73777;DHT22;62088;50.240;2.696;2022-10-31T11:57:48;16.70;79.40
73777;DHT22;62088;50.240;2.696;2022-10-31T12:00:27;16.70;79.40
73777;DHT22;62088;50.240;2.696;2022-10-31T12:08:35;16.80;79.30
73777;DHT22;62088;50.240;2.696;2022-10-31T12:16:56;16.80;79.30
73777;DHT22;62088;50.240;2.696;2022-10-31T12:19:42;16.90;79.30
73777;DHT22;62088;50.240;2.696;2022-10-31T12:22:13;16.90;79.30
73777;DHT22;62088;50.240;2.696;2022-10-31T12:25:03;16.90;79.20
73777;DHT22;62088;50.240;2.696;2022-10-31T12:33:23;17.00;79.10
73777;DHT22;62088;50.240;2.696;2022-10-31T12:36:12;17.10;79.00
73777;DHT22;62088;50.240;2.696;2022-10-31T12:41:24;17.10;78.90
73777;DHT22;62088;50.240;2.696;2022-10-31T12:47:38;17.20;78.90
73777;DHT22;62088;50.240;2.696;2022-10-31T12:58:29;17.20;78.90
73777;DHT22;62088;50.240;2.696;2022-10-31T13:01:09;17.30;78.80
73777;DHT22;62088;50.240;2.696;2022-10-31T13:06:40;17.30;78.60
73777;DHT22;62088;50.240;2.696;2022-10-31T13:09:15;17.30;78.70
73777;DHT22;62088;50.240;2.696;2022-10-31T13:11:58;17.30;78.70
73777;DHT22;62088;50.240;2.696;2022-10-31T13:14:38;17.30;78.60
73777;DHT22;62088;50.240;2.696;2022-10-31T13:17:06;17.30;78.50
73777;DHT22;62088;50.240;2.696;2022-10-31T13:19:42;17.30;78.60
73777;DHT22;62088;50.240;2.696;2022-10-31T13:22:23;17.30;78.70
73777;DHT22;62088;50.240;2.696;2022-10-31T13:25:22;17.40;78.80
73777;DHT22;62088;50.240;2.696;2022-10-31T13:30:53;17.40;78.70
73777;DHT22;62088;50.240;2.696;2022-10-31T13:33:30;17.40;78.80
73777;DHT22;62088;50.240;2.696;2022-10-31T13:39:01;17.40;78.70
73777;DHT22;62088;50.240;2.696;2022-10-31T13:44:27;17.40;78.80
73777;DHT22;62088;50.240;2.696;2022-10-31T13:46:56;17.50;78.90
73777;DHT22;62088;50.240;2.696;2022-10-31T13:57:17;17.60;78.90
73777;DHT22;62088;50.240;2.696;2022-10-31T13:59:56;17.70;78.80
73777;DHT22;62088;50.240;2.696;2022-10-31T14:02:27;17.80;78.70
73777;DHT22;62088;50.240;2.696;2022-10-31T14:05:05;17.80;78.60
73777;DHT22;62088;50.240;2.696;2022-10-31T14:07:43;17.90;78.50
73777;DHT22;62088;50.240;2.696;2022-10-31T14:10:38;17.90;78.50
73777;DHT22;62088;50.240;2.696;2022-10-31T14:15:56;18.00;78.40
73777;DHT22;62088;50.240;2.696;2022-10-31T14:18:35;18.00;78.30
73777;DHT22;62088;50.240;2.696;2022-10-31T14:23:53;18.00;77.50
73777;DHT22;62088;50.240;2.696;2022-10-31T14:29:20;18.10;76.80
73777;DHT22;62088;50.240;2.696;2022-10-31T14:31:44;18.10;76.60
73777;DHT22;62088;50.240;2.696;2022-10-31T14:45:27;18.20;76.10
73777;DHT22;62088;50.240;2.696;2022-10-31T14:51:09;18.20;76.20
73777;DHT22;62088;50.240;2.696;2022-10-31T14:53:32;18.20;76.10
73777;DHT22;62088;50.240;2.696;2022-10-31T14:55:59;18.10;75.80
73777;DHT22;62088;50.240;2.696;2022-10-31T14:58:41;18.20;75.80
73777;DHT22;62088;50.240;2.696;2022-10-31T15:01:26;18.20;75.60
73777;DHT22;62088;50.240;2.696;2022-10-31T15:04:25;18.20;75.60
73777;DHT22;62088;50.240;2.696;2022-10-31T15:09:35;18.10;75.50
73777;DHT22;62088;50.240;2.696;2022-10-31T15:12:35;18.10;75.50
73777;DHT22;62088;50.240;2.696;2022-10-31T15:15:12;18.00;75.60
73777;DHT22;62088;50.240;2.696;2022-10-31T15:17:53;18.00;75.80
73777;DHT22;62088;50.240;2.696;2022-10-31T15:20:24;17.90;75.90
73777;DHT22;62088;50.240;2.696;2022-10-31T15:22:56;17.90;76.00
73777;DHT22;62088;50.240;2.696;2022-10-31T15:25:27;17.90;76.10
73777;DHT22;62088;50.240;2.696;2022-10-31T15:27:56;17.90;76.20
73777;DHT22;62088;50.240;2.696;2022-10-31T15:30:26;17.80;76.30
73777;DHT22;62088;50.240;2.696;2022-10-31T15:32:53;17.70;76.30
73777;DHT22;62088;50.240;2.696;2022-10-31T15:35:29;17.70;76.30
73777;DHT22;62088;50.240;2.696;2022-10-31T15:37:58;17.60;76.40
73777;DHT22;62088;50.240;2.696;2022-10-31T15:40:27;17.50;76.50
73777;DHT22;62088;50.240;2.696;2022-10-31T15:43:00;17.50;76.60
73777;DHT22;62088;50.240;2.696;2022-10-31T15:45:29;17.40;76.80
73777;DHT22;62088;50.240;2.696;2022-10-31T15:48:15;17.40;76.90
73777;DHT22;62088;50.240;2.696;2022-10-31T15:50:55;17.30;77.00
73777;DHT22;62088;50.240;2.696;2022-10-31T15:53:35;17.30;77.20
73777;DHT22;62088;50.240;2.696;2022-10-31T15:56:08;17.20;77.30
73777;DHT22;62088;50.240;2.696;2022-10-31T15:58:44;17.20;77.40
73777;DHT22;62088;50.240;2.696;2022-10-31T16:01:23;17.20;77.50
73777;DHT22;62088;50.240;2.696;2022-10-31T16:04:05;17.10;77.60
73777;DHT22;62088;50.240;2.696;2022-10-31T16:06:35;17.10;77.70
73777;DHT22;62088;50.240;2.696;2022-10-31T16:09:03;17.00;77.80
73777;DHT22;62088;50.240;2.696;2022-10-31T16:11:40;16.90;77.90
73777;DHT22;62088;50.240;2.696;2022-10-31T16:14:22;16.90;78.00
73777;DHT22;62088;50.240;2.696;2022-10-31T16:16:53;16.90;78.10
73777;DHT22;62088;50.240;2.696;2022-10-31T16:19:31;16.80;78.20
73777;DHT22;62088;50.240;2.696;2022-10-31T16:22:05;16.80;78.30
73777;DHT22;62088;50.240;2.696;2022-10-31T16:24:38;16.80;78.30
73777;DHT22;62088;50.240;2.696;2022-10-31T16:27:19;16.70;78.40
73777;DHT22;62088;50.240;2.696;2022-10-31T16:29:52;16.70;78.50
73777;DHT22;62088;50.240;2.696;2022-10-31T16:32:32;16.60;78.70
73777;DHT22;62088;50.240;2.696;2022-10-31T16:37:40;16.60;79.00
73777;DHT22;62088;50.240;2.696;2022-10-31T16:40:15;16.50;79.10
73777;DHT22;62088;50.240;2.696;2022-10-31T16:42:43;16.40;79.30
73777;DHT22;62088;50.240;2.696;2022-10-31T16:45:19;16.40;79.40
73777;DHT22;62088;50.240;2.696;2022-10-31T16:47:47;16.40;79.50
73777;DHT22;62088;50.240;2.696;2022-10-31T16:50:19;16.40;79.60
73777;DHT22;62088;50.240;2.696;2022-10-31T16:52:46;16.40;79.70
73777;DHT22;62088;50.240;2.696;2022-10-31T16:55:33;16.40;79.80
73777;DHT22;62088;50.240;2.696;2022-10-31T16:58:03;16.30;79.80
73777;DHT22;62088;50.240;2.696;2022-10-31T17:00:30;16.30;80.00
73777;DHT22;62088;50.240;2.696;2022-10-31T17:02:57;16.30;80.00
73777;DHT22;62088;50.240;2.696;2022-10-31T17:05:25;16.30;80.10
73777;DHT22;62088;50.240;2.696;2022-10-31T17:07:59;16.30;80.20
73777;DHT22;62088;50.240;2.696;2022-10-31T17:10:26;16.20;80.20
73777;DHT22;62088;50.240;2.696;2022-10-31T17:12:54;16.30;80.30
73777;DHT22;62088;50.240;2.696;2022-10-31T17:15:25;16.20;80.30
73777;DHT22;62088;50.240;2.696;2022-10-31T17:17:53;16.20;80.30
73777;DHT22;62088;50.240;2.696;2022-10-31T17:20:26;16.20;80.40
73777;DHT22;62088;50.240;2.696;2022-10-31T17:22:54;16.20;80.40
73777;DHT22;62088;50.240;2.696;2022-10-31T17:25:23;16.20;80.40
73777;DHT22;62088;50.240;2.696;2022-10-31T17:27:51;16.20;80.40
73777;DHT22;62088;50.240;2.696;2022-10-31T17:30:19;16.20;80.50
73777;DHT22;62088;50.240;2.696;2022-10-31T17:32:47;16.10;80.50
73777;DHT22;62088;50.240;2.696;2022-10-31T17:35:15;16.10;80.60
73777;DHT22;62088;50.240;2.696;2022-10-31T17:37:43;16.10;80.60
73777;DHT22;62088;50.240;2.696;2022-10-31T17:40:16;16.10;80.70
73777;DHT22;62088;50.240;2.696;2022-10-31T17:42:49;16.00;80.70
73777;DHT22;62088;50.240;2.696;2022-10-31T17:45:16;16.00;80.70
73777;DHT22;62088;50.240;2.696;2022-10-31T17:47:48;16.00;80.80
73777;DHT22;62088;50.240;2.696;2022-10-31T17:50:17;16.00;80.90
73777;DHT22;62088;50.240;2.696;2022-10-31T17:52:45;16.00;80.90
73777;DHT22;62088;50.240;2.696;2022-10-31T17:55:13;16.00;81.00
73777;DHT22;62088;50.240;2.696;2022-10-31T17:57:40;16.10;81.00
73777;DHT22;62088;50.240;2.696;2022-10-31T18:00:10;16.10;81.10
73777;DHT22;62088;50.240;2.696;2022-10-31T18:02:37;16.10;81.10
73777;DHT22;62088;50.240;2.696;2022-10-31T18:05:05;16.10;81.10
73777;DHT22;62088;50.240;2.696;2022-10-31T18:07:32;16.10;81.00
73777;DHT22;62088;50.240;2.696;2022-10-31T18:09:59;16.20;81.00
73777;DHT22;62088;50.240;2.696;2022-10-31T18:12:26;16.20;81.00
73777;DHT22;62088;50.240;2.696;2022-10-31T18:14:53;16.20;80.90
73777;DHT22;62088;50.240;2.696;2022-10-31T18:17:21;16.20;80.90
73777;DHT22;62088;50.240;2.696;2022-10-31T18:19:48;16.20;80.90
73777;DHT22;62088;50.240;2.696;2022-10-31T18:22:15;16.20;80.90
73777;DHT22;62088;50.240;2.696;2022-10-31T18:24:42;16.20;80.90
73777;DHT22;62088;50.240;2.696;2022-10-31T18:27:09;16.20;80.90
73777;DHT22;62088;50.240;2.696;2022-10-31T18:29:36;16.20;80.90
73777;DHT22;62088;50.240;2.696;2022-10-31T18:32:03;16.20;80.90
73777;DHT22;62088;50.240;2.696;2022-10-31T18:34:35;16.30;80.90
73777;DHT22;62088;50.240;2.696;2022-10-31T18:37:05;16.30;80.90
73777;DHT22;62088;50.240;2.696;2022-10-31T18:39:32;16.30;81.30
73777;DHT22;62088;50.240;2.696;2022-10-31T18:41:59;16.30;81.50
73777;DHT22;62088;50.240;2.696;2022-10-31T18:44:26;16.30;81.70